createdAt,value
2018-10-16T00:01:36.225Z,54.80
2018-10-16T00:04:39.299Z,55.00
2018-10-16T00:07:42.230Z,55.20
2018-10-16T00:10:46.247Z,55.70
2018-10-16T00:13:49.149Z,55.30
2018-10-16T00:16:52.117Z,55.50
2018-10-16T00:19:55.076Z,55.70
2018-10-16T00:22:57.990Z,55.50
2018-10-16T00:26:00.939Z,55.10
2018-10-16T00:29:03.890Z,55.00
2018-10-16T00:32:06.825Z,55.60
2018-10-16T00:35:10.261Z,54.90
2018-10-16T00:38:13.213Z,55.00
2018-10-16T00:41:16.139Z,55.00
2018-10-16T00:44:19.054Z,55.30
2018-10-16T00:47:21.978Z,56.10
2018-10-16T00:50:24.932Z,56.60
2018-10-16T00:53:27.866Z,56.30
2018-10-16T00:56:30.786Z,56.00
2018-10-16T00:59:33.713Z,56.00
2018-10-16T01:02:36.953Z,56.20
2018-10-16T01:05:39.853Z,55.90
2018-10-16T01:08:42.740Z,56.00
2018-10-16T01:11:45.712Z,56.20
2018-10-16T01:14:48.605Z,56.00
2018-10-16T01:17:51.577Z,56.20
2018-10-16T01:20:54.548Z,56.50
2018-10-16T01:23:57.545Z,56.80
2018-10-16T01:27:00.539Z,56.70
2018-10-16T01:30:03.630Z,56.50
2018-10-16T01:33:06.585Z,56.70
2018-10-16T01:36:10.664Z,56.30
2018-10-16T01:39:13.580Z,56.60
2018-10-16T01:42:16.502Z,56.80
2018-10-16T01:45:19.473Z,57.30
2018-10-16T01:48:22.418Z,57.40
2018-10-16T01:51:25.373Z,57.20
2018-10-16T01:54:28.267Z,57.20
2018-10-16T01:57:31.197Z,57.30
2018-10-16T02:00:34.158Z,57.10
2018-10-16T02:03:37.093Z,57.60
2018-10-16T02:06:40.129Z,57.90
2018-10-16T02:09:43.006Z,58.10
2018-10-16T02:12:45.963Z,58.50
2018-10-16T02:15:48.961Z,58.40
2018-10-16T02:18:51.940Z,58.30
2018-10-16T02:21:54.893Z,58.40
2018-10-16T02:24:57.842Z,58.40
2018-10-16T02:28:00.959Z,58.40
2018-10-16T02:31:03.966Z,58.50
2018-10-16T02:34:06.884Z,58.90
2018-10-16T02:37:10.017Z,59.20
2018-10-16T02:40:12.943Z,59.30
2018-10-16T02:43:15.885Z,59.50
2018-10-16T02:46:18.839Z,59.60
2018-10-16T02:49:21.778Z,59.60
2018-10-16T02:52:24.722Z,59.50
2018-10-16T02:55:27.615Z,59.70
2018-10-16T02:58:30.521Z,59.90
2018-10-16T03:01:33.395Z,60.00
2018-10-16T03:04:36.400Z,60.10
2018-10-16T03:07:39.329Z,59.90
2018-10-16T03:10:42.226Z,59.90
2018-10-16T03:13:45.126Z,59.70
2018-10-16T03:16:48.167Z,59.60
2018-10-16T03:19:51.170Z,59.60
2018-10-16T03:22:54.137Z,59.70
2018-10-16T03:25:57.034Z,59.80
2018-10-16T03:29:00.020Z,59.80
2018-10-16T03:32:02.938Z,59.90
2018-10-16T03:35:06.546Z,59.70
2018-10-16T03:38:09.467Z,59.60
2018-10-16T03:41:12.362Z,59.70
2018-10-16T03:44:15.285Z,59.70
2018-10-16T03:47:18.265Z,59.90
2018-10-16T03:50:21.174Z,59.90
2018-10-16T03:53:24.085Z,61.20
2018-10-16T03:56:27.241Z,60.50
2018-10-16T03:59:30.203Z,60.90
2018-10-16T04:02:33.157Z,60.90
2018-10-16T04:05:36.141Z,60.90
2018-10-16T04:08:39.069Z,60.70
2018-10-16T04:11:41.994Z,61.20
2018-10-16T04:14:44.879Z,61.90
2018-10-16T04:17:47.849Z,62.00
2018-10-16T04:20:50.805Z,62.70
2018-10-16T04:23:53.701Z,62.90
2018-10-16T04:26:56.626Z,62.80
2018-10-16T04:29:59.534Z,62.00
2018-10-16T04:33:02.429Z,61.90
2018-10-16T04:36:05.573Z,61.20
2018-10-16T04:39:12.797Z,61.30
2018-10-16T04:42:15.752Z,61.80
2018-10-16T04:45:18.623Z,62.00
2018-10-16T04:48:21.897Z,62.50
2018-10-16T04:51:24.758Z,61.80
2018-10-16T04:54:27.653Z,61.90
2018-10-16T04:57:30.593Z,62.40
2018-10-16T05:00:33.617Z,62.60
2018-10-16T05:03:36.690Z,61.90
2018-10-16T05:06:39.594Z,62.40
2018-10-16T05:09:42.526Z,62.40
2018-10-16T05:12:45.484Z,61.90
2018-10-16T05:15:48.401Z,61.20
2018-10-16T05:18:51.468Z,62.10
2018-10-16T05:21:54.417Z,62.30
2018-10-16T05:24:57.325Z,62.30
2018-10-16T05:28:00.238Z,62.50
2018-10-16T05:31:03.385Z,62.60
2018-10-16T05:34:07.238Z,62.90
2018-10-16T05:37:10.110Z,62.60
2018-10-16T05:40:13.036Z,62.20
2018-10-16T05:43:15.886Z,62.60
2018-10-16T05:46:18.885Z,62.90
2018-10-16T05:49:21.882Z,62.80
2018-10-16T05:52:24.833Z,62.40
2018-10-16T05:55:27.834Z,62.70
2018-10-16T05:58:30.774Z,63.00
2018-10-16T06:01:33.682Z,62.70
2018-10-16T06:04:36.593Z,63.00
2018-10-16T06:07:39.795Z,63.10
2018-10-16T06:10:42.735Z,63.20
2018-10-16T06:13:45.724Z,63.20
2018-10-16T06:16:48.724Z,63.50
2018-10-16T06:19:51.626Z,63.20
2018-10-16T06:22:55.304Z,63.60
2018-10-16T06:25:58.281Z,63.80
2018-10-16T06:29:01.302Z,64.40
2018-10-16T06:32:04.429Z,62.60
2018-10-16T06:35:08.449Z,63.50
2018-10-16T06:38:11.388Z,63.50
2018-10-16T06:41:14.420Z,62.70
2018-10-16T06:44:17.222Z,62.90
2018-10-16T06:47:20.207Z,63.30
2018-10-16T06:50:23.026Z,63.80
2018-10-16T06:53:26.011Z,63.10
2018-10-16T06:56:29.032Z,63.50
2018-10-16T06:59:31.977Z,63.70
2018-10-16T07:02:34.884Z,63.40
2018-10-16T07:05:37.794Z,63.60
2018-10-16T07:08:40.795Z,64.00
2018-10-16T07:11:43.773Z,64.10
2018-10-16T07:14:46.764Z,64.10
2018-10-16T07:17:49.721Z,65.20
2018-10-16T07:20:52.685Z,61.30
2018-10-16T07:23:55.706Z,61.70
2018-10-16T07:26:58.586Z,62.70
2018-10-16T07:30:01.542Z,63.30
2018-10-16T07:33:04.489Z,64.40
2018-10-16T07:36:07.395Z,64.40
2018-10-16T07:39:11.913Z,65.10
2018-10-16T07:42:14.840Z,65.20
2018-10-16T07:45:17.766Z,65.00
2018-10-16T07:48:20.761Z,64.90
2018-10-16T07:51:23.661Z,65.30
2018-10-16T07:54:26.574Z,65.30
2018-10-16T07:57:29.449Z,65.00
2018-10-16T08:00:32.571Z,65.50
2018-10-16T08:03:35.636Z,65.60
2018-10-16T08:06:38.741Z,66.10
2018-10-16T08:09:41.903Z,66.10
2018-10-16T08:12:45.064Z,66.30
2018-10-16T08:15:48.348Z,66.40
2018-10-16T08:18:51.683Z,66.50
2018-10-16T08:21:55.173Z,66.40
2018-10-16T08:24:58.192Z,66.70
2018-10-16T08:28:01.465Z,66.80
2018-10-16T08:31:04.805Z,67.10
2018-10-16T08:34:07.872Z,67.30
2018-10-16T08:37:13.469Z,67.50
2018-10-16T08:40:16.471Z,67.80
2018-10-16T08:43:42.388Z,67.60
2018-10-16T08:47:02.795Z,67.70
2018-10-16T08:50:23.273Z,68.00
2018-10-16T08:53:26.230Z,68.00
2018-10-16T08:56:29.286Z,68.00
2018-10-16T08:59:32.232Z,68.20
2018-10-16T09:02:35.149Z,68.50
2018-10-16T09:05:38.080Z,68.50
2018-10-16T09:08:41.032Z,68.10
2018-10-16T09:11:45.184Z,68.40
2018-10-16T09:14:48.122Z,68.50
2018-10-16T09:17:51.085Z,67.90
2018-10-16T09:20:54.445Z,67.70
2018-10-16T09:23:57.321Z,67.00
2018-10-16T09:27:00.265Z,64.60
2018-10-16T09:30:03.668Z,66.10
2018-10-16T09:33:06.585Z,65.40
2018-10-16T09:36:09.526Z,66.20
2018-10-16T09:39:12.529Z,65.30
2018-10-16T09:42:15.478Z,62.60
2018-10-16T09:45:18.413Z,64.20
2018-10-16T09:48:22.295Z,65.20
2018-10-16T09:51:26.825Z,64.30
2018-10-16T09:54:29.742Z,64.90
2018-10-16T09:57:32.649Z,65.90
2018-10-16T10:00:41.178Z,65.80
2018-10-16T10:03:44.089Z,64.20
2018-10-16T10:06:47.037Z,62.40
2018-10-16T10:09:49.903Z,59.70
2018-10-16T10:12:52.861Z,58.30
2018-10-16T10:15:55.809Z,58.60
2018-10-16T10:18:58.753Z,60.30
2018-10-16T10:22:01.715Z,61.00
2018-10-16T10:25:05.503Z,58.50
2018-10-16T10:28:08.434Z,57.50
2018-10-16T10:31:11.370Z,57.10
2018-10-16T10:34:14.282Z,58.60
2018-10-16T10:37:17.200Z,58.70
2018-10-16T10:40:20.137Z,60.40
2018-10-16T10:43:23.017Z,58.40
2018-10-16T10:46:25.971Z,62.60
2018-10-16T10:49:28.928Z,60.90
2018-10-16T10:52:31.859Z,60.00
2018-10-16T10:55:34.796Z,59.70
2018-10-16T10:58:37.731Z,58.60
2018-10-16T11:01:40.677Z,59.50
2018-10-16T11:04:43.632Z,58.50
2018-10-16T11:07:46.567Z,57.60
2018-10-16T11:10:49.500Z,58.70
2018-10-16T11:13:52.432Z,58.70
2018-10-16T11:16:55.361Z,58.40
2018-10-16T11:19:58.292Z,57.00
2018-10-16T11:23:01.386Z,56.60
2018-10-16T11:26:04.637Z,56.90
2018-10-16T11:29:07.590Z,57.40
2018-10-16T11:32:10.534Z,53.60
2018-10-16T11:35:14.144Z,55.20
2018-10-16T11:38:17.104Z,55.90
2018-10-16T11:41:20.030Z,55.10
2018-10-16T11:44:22.977Z,52.20
2018-10-16T11:47:25.866Z,52.30
2018-10-16T11:50:28.758Z,50.90
2018-10-16T11:53:31.674Z,51.00
2018-10-16T11:56:34.616Z,51.70
2018-10-16T11:59:37.514Z,50.60
2018-10-16T12:02:40.610Z,53.00
2018-10-16T12:05:43.478Z,51.20
2018-10-16T12:08:46.480Z,53.00
2018-10-16T12:11:50.836Z,54.30
2018-10-16T12:14:53.767Z,52.30
2018-10-16T12:18:06.833Z,52.00
2018-10-16T12:21:13.487Z,51.50
2018-10-16T12:24:16.459Z,50.80
2018-10-16T12:27:19.359Z,50.20
2018-10-16T12:30:22.309Z,49.90
2018-10-16T12:33:25.202Z,51.70
2018-10-16T12:36:28.169Z,52.10
2018-10-16T12:39:31.112Z,53.10
2018-10-16T12:42:34.012Z,53.00
2018-10-16T12:45:36.918Z,53.30
2018-10-16T12:48:39.838Z,50.90
2018-10-16T12:51:42.781Z,49.10
2018-10-16T12:54:45.749Z,50.40
2018-10-16T12:57:48.710Z,49.10
2018-10-16T13:00:51.688Z,47.80
2018-10-16T13:03:54.572Z,50.30
2018-10-16T13:07:02.064Z,52.60
2018-10-16T13:10:18.490Z,49.40
2018-10-16T13:13:21.425Z,50.20
2018-10-16T13:16:24.381Z,49.20
2018-10-16T13:19:27.309Z,47.40
2018-10-16T13:22:30.266Z,44.50
2018-10-16T13:25:33.143Z,47.10
2018-10-16T13:28:36.117Z,43.60
2018-10-16T13:31:39.037Z,44.50
2018-10-16T13:34:42.018Z,47.20
2018-10-16T13:37:45.624Z,48.00
2018-10-16T13:40:48.624Z,47.00
2018-10-16T13:43:51.541Z,45.90
2018-10-16T13:46:54.446Z,46.20
2018-10-16T13:49:57.346Z,46.60
2018-10-16T13:53:00.303Z,46.90
2018-10-16T13:56:03.278Z,45.60
2018-10-16T13:59:06.166Z,45.90
2018-10-16T14:02:09.085Z,45.70
2018-10-16T14:05:12.052Z,47.60
2018-10-16T14:08:15.058Z,47.40
2018-10-16T14:11:17.973Z,47.60
2018-10-16T14:14:20.889Z,46.30
2018-10-16T14:17:23.829Z,46.50
2018-10-16T14:20:26.806Z,48.10
2018-10-16T14:23:29.725Z,48.10
2018-10-16T14:26:32.672Z,47.80
2018-10-16T14:29:35.605Z,48.20
2018-10-16T14:32:38.825Z,49.00
2018-10-16T14:35:41.732Z,48.90
2018-10-16T14:38:44.632Z,50.70
2018-10-16T14:41:47.532Z,49.50
2018-10-16T14:44:50.409Z,49.30
2018-10-16T14:47:53.396Z,50.90
2018-10-16T14:50:56.304Z,52.00
2018-10-16T14:53:59.630Z,53.70
2018-10-16T14:57:02.621Z,54.80
2018-10-16T15:00:08.394Z,56.40
2018-10-16T15:03:11.322Z,57.00
2018-10-16T15:06:14.222Z,56.80
2018-10-16T15:09:17.171Z,58.70
2018-10-16T15:12:24.709Z,58.00
2018-10-16T15:15:27.664Z,57.00
2018-10-16T15:18:30.565Z,58.30
2018-10-16T15:21:33.504Z,56.90
2018-10-16T15:24:36.442Z,57.10
2018-10-16T15:27:39.353Z,57.70
2018-10-16T15:30:42.293Z,58.40
2018-10-16T15:33:45.209Z,58.40
2018-10-16T15:36:48.094Z,58.80
2018-10-16T15:39:51.014Z,59.10
2018-10-16T15:42:53.928Z,59.20
2018-10-16T15:45:56.909Z,59.80
2018-10-16T15:48:59.960Z,59.70
2018-10-16T15:52:02.893Z,60.00
2018-10-16T15:55:06.457Z,60.00
2018-10-16T15:58:09.516Z,60.40
2018-10-16T16:01:12.339Z,59.90
2018-10-16T16:04:15.333Z,59.80
2018-10-16T16:07:18.269Z,60.70
2018-10-16T16:10:21.201Z,59.90
2018-10-16T16:13:24.134Z,59.90
2018-10-16T16:16:27.056Z,59.70
2018-10-16T16:19:29.994Z,59.60
2018-10-16T16:22:32.924Z,59.90
2018-10-16T16:25:35.829Z,60.00
2018-10-16T16:28:38.726Z,60.60
2018-10-16T16:31:41.641Z,59.80
2018-10-16T16:34:44.494Z,59.80
2018-10-16T16:37:47.388Z,59.60
2018-10-16T16:40:50.275Z,59.80
2018-10-16T16:43:53.359Z,59.70
2018-10-16T16:46:56.145Z,59.70
2018-10-16T16:49:59.132Z,60.10
2018-10-16T16:53:02.164Z,59.90
2018-10-16T16:56:05.199Z,59.90
2018-10-16T16:59:08.129Z,59.60
2018-10-16T17:02:11.077Z,59.60
2018-10-16T17:05:14.500Z,59.80
2018-10-16T17:08:17.481Z,59.70
2018-10-16T17:11:20.418Z,59.80
2018-10-16T17:14:23.324Z,59.80
2018-10-16T17:17:26.228Z,59.90
2018-10-16T17:20:29.150Z,60.10
2018-10-16T17:23:32.115Z,60.10
2018-10-16T17:26:35.071Z,60.30
2018-10-16T17:29:37.949Z,60.80
2018-10-16T17:32:41.469Z,61.00
2018-10-16T17:35:44.397Z,60.80
2018-10-16T17:38:47.365Z,61.00
2018-10-16T17:41:50.344Z,61.10
2018-10-16T17:44:53.320Z,61.10
2018-10-16T17:47:56.352Z,60.90
2018-10-16T17:50:59.150Z,61.00
2018-10-16T17:54:01.994Z,60.60
2018-10-16T17:57:05.580Z,60.30
2018-10-16T18:00:13.027Z,60.80
2018-10-16T18:03:16.033Z,60.60
2018-10-16T18:06:18.826Z,61.10
2018-10-16T18:09:21.750Z,61.10
2018-10-16T18:12:25.488Z,60.60
2018-10-16T18:15:28.437Z,60.80
2018-10-16T18:18:31.400Z,61.10
2018-10-16T18:21:34.347Z,61.00
2018-10-16T18:24:37.281Z,61.10
2018-10-16T18:27:40.894Z,61.30
2018-10-16T18:30:43.908Z,61.40
2018-10-16T18:33:46.814Z,61.20
2018-10-16T18:36:49.737Z,61.40
2018-10-16T18:39:52.716Z,60.90
2018-10-16T18:42:55.673Z,61.50
2018-10-16T18:45:58.614Z,62.10
2018-10-16T18:49:01.553Z,62.30
2018-10-16T18:52:04.745Z,62.40
2018-10-16T18:55:09.486Z,62.60
2018-10-16T18:58:12.370Z,62.40
2018-10-16T19:01:15.282Z,62.50
2018-10-16T19:04:18.185Z,62.20
2018-10-16T19:07:21.110Z,61.80
2018-10-16T19:10:24.046Z,62.00
2018-10-16T19:13:26.946Z,62.90
2018-10-16T19:16:29.916Z,62.50
2018-10-16T19:19:32.859Z,62.10
2018-10-16T19:22:35.734Z,62.50
2018-10-16T19:25:38.632Z,62.10
2018-10-16T19:28:41.593Z,61.90
2018-10-16T19:31:44.504Z,62.30
2018-10-16T19:34:47.422Z,61.70
2018-10-16T19:37:50.425Z,61.10
2018-10-16T19:40:53.302Z,60.80
2018-10-16T19:43:56.241Z,60.90
2018-10-16T19:46:59.167Z,60.90
2018-10-16T19:50:02.169Z,60.80
2018-10-16T19:53:05.116Z,61.30
2018-10-16T19:56:08.046Z,61.20
2018-10-16T19:59:10.899Z,61.60
2018-10-16T20:02:13.858Z,61.60
2018-10-16T20:05:16.774Z,61.70
2018-10-16T20:08:19.738Z,62.20
2018-10-16T20:11:22.647Z,62.70
2018-10-16T20:14:25.677Z,63.30
2018-10-16T20:17:28.629Z,63.00
2018-10-16T20:20:31.518Z,62.50
2018-10-16T20:23:34.434Z,62.10
2018-10-16T20:26:37.414Z,62.00
2018-10-16T20:29:40.341Z,62.50
2018-10-16T20:32:43.311Z,62.90
2018-10-16T20:35:46.248Z,63.30
2018-10-16T20:38:49.199Z,63.20
2018-10-16T20:41:52.190Z,63.40
2018-10-16T20:44:55.096Z,63.30
2018-10-16T20:47:58.038Z,63.50
2018-10-16T20:51:00.969Z,62.80
2018-10-16T20:54:04.165Z,62.10
2018-10-16T20:57:07.128Z,62.00
2018-10-16T21:00:10.085Z,62.20
2018-10-16T21:03:13.019Z,62.20
2018-10-16T21:06:16.221Z,62.60
2018-10-16T21:09:18.945Z,62.40
2018-10-16T21:12:21.995Z,62.60
2018-10-16T21:15:24.928Z,63.30
2018-10-16T21:18:27.866Z,63.40
2018-10-16T21:21:30.941Z,62.80
2018-10-16T21:24:33.841Z,62.70
2018-10-16T21:27:36.839Z,62.20
2018-10-16T21:30:39.730Z,62.50
2018-10-16T21:33:42.697Z,62.50
2018-10-16T21:36:45.581Z,62.80
2018-10-16T21:39:48.556Z,62.50
2018-10-16T21:42:51.543Z,62.50
2018-10-16T21:45:54.440Z,62.90
2018-10-16T21:48:57.368Z,62.90
2018-10-16T21:52:00.258Z,63.60
2018-10-16T21:55:03.232Z,63.50
2018-10-16T21:58:06.256Z,64.20
2018-10-16T22:01:10.430Z,63.60
2018-10-16T22:04:13.266Z,63.70
2018-10-16T22:07:16.282Z,63.60
2018-10-16T22:10:19.599Z,64.10
2018-10-16T22:13:22.494Z,63.80
2018-10-16T22:16:25.488Z,63.70
2018-10-16T22:19:28.445Z,63.20
2018-10-16T22:22:31.362Z,63.50
2018-10-16T22:25:34.288Z,63.20
2018-10-16T22:28:37.250Z,62.90
2018-10-16T22:31:40.165Z,63.40
2018-10-16T22:34:43.083Z,63.40
2018-10-16T22:37:46.019Z,64.30
2018-10-16T22:40:48.954Z,63.00
2018-10-16T22:43:51.916Z,62.80
2018-10-16T22:46:54.853Z,63.00
2018-10-16T22:49:57.833Z,62.80
2018-10-16T22:53:00.789Z,63.10
2018-10-16T22:56:03.785Z,63.60
2018-10-16T22:59:06.736Z,63.80
2018-10-16T23:02:09.660Z,64.00
2018-10-16T23:05:12.662Z,63.40
2018-10-16T23:08:15.549Z,63.60
2018-10-16T23:11:18.583Z,63.90
2018-10-16T23:14:21.383Z,63.50
2018-10-16T23:17:24.376Z,63.30
2018-10-16T23:20:27.425Z,63.40
2018-10-16T23:23:30.317Z,63.40
2018-10-16T23:26:33.316Z,63.90
2018-10-16T23:29:36.208Z,63.60
2018-10-16T23:32:39.090Z,63.30
2018-10-16T23:35:41.997Z,63.50
2018-10-16T23:38:44.871Z,63.50
2018-10-16T23:41:47.828Z,63.30
2018-10-16T23:44:50.720Z,63.50
2018-10-16T23:47:53.689Z,64.60
2018-10-16T23:50:56.608Z,63.80
2018-10-16T23:53:59.606Z,63.60
2018-10-16T23:57:02.486Z,63.30
